Sydenham, Canada
Current Conditions -  °F | °C
As of 10:00 AM on Wednesday 22 Oct 2014 (Local Time) from CYVV Reporting Station
Few Clouds Few Clouds  
Wind Chill:   Ceiling: Unl
Heat Index:   Visibility: 15mi
Dew Point:   Wind: 10mph
Humidity: 81%   Direction: 50°NE
Pressure: 30.33"   Gusts: NA
Location:  44.57°N, 80.8°W
Report Text: CYVV 221400Z 05009KT 15SM FEW025 07/04 A3033 RMK SC2 SLP280
Loading
Personal Weather Stations






























Interactive Weather Map
Tropical Storm Tracking
New forecast layout! Learn more

10-Day Weather Forecast

Advertisements
Track Severe Weather on mobile